createdAt,value
2023-02-11T00:01:37.352Z,0.52
2023-02-11T00:04:06.484Z,0.38
2023-02-11T00:06:36.826Z,0.36
2023-02-11T00:09:05.568Z,0.04
2023-02-11T00:11:33.111Z,-0.16
2023-02-11T00:14:02.900Z,-0.05
2023-02-11T00:16:31.886Z,-0.12
2023-02-11T00:19:00.039Z,-0.32
2023-02-11T00:21:28.449Z,-0.33
2023-02-11T00:23:59.693Z,-0.38
2023-02-11T00:26:30.108Z,-0.37
2023-02-11T00:28:58.003Z,-0.45
2023-02-11T00:31:26.537Z,-0.28
2023-02-11T00:33:54.551Z,-0.26
2023-02-11T00:36:24.403Z,-0.34
2023-02-11T00:38:53.935Z,-0.59
2023-02-11T00:41:23.586Z,-0.77
2023-02-11T00:43:51.988Z,-0.65
2023-02-11T00:46:21.082Z,-0.67
2023-02-11T00:48:49.028Z,-0.60
2023-02-11T00:51:16.625Z,-0.54
2023-02-11T00:53:44.318Z,-0.66
2023-02-11T00:56:11.841Z,-0.69
2023-02-11T00:58:40.716Z,-0.58
2023-02-11T01:01:08.507Z,-0.36
2023-02-11T01:03:36.082Z,-0.28
2023-02-11T01:06:03.927Z,-0.28
2023-02-11T01:08:31.576Z,-0.34
2023-02-11T01:11:01.416Z,-0.26
2023-02-11T01:13:29.769Z,-0.28
2023-02-11T01:15:59.060Z,-0.32
2023-02-11T01:18:27.685Z,-0.40
2023-02-11T01:20:55.755Z,-0.41
2023-02-11T01:23:23.399Z,-0.44
2023-02-11T01:25:51.770Z,-0.45
2023-02-11T01:28:21.875Z,-0.37
2023-02-11T01:30:49.537Z,-0.40
2023-02-11T01:33:18.787Z,-0.33
2023-02-11T01:35:46.423Z,-0.30
2023-02-11T01:38:17.746Z,-0.65
2023-02-11T01:40:48.733Z,-0.45
2023-02-11T01:43:16.224Z,-0.23
2023-02-11T01:45:59.804Z,-0.11
2023-02-11T01:48:32.802Z,-0.21
2023-02-11T01:51:03.847Z,-0.32
2023-02-11T01:53:50.958Z,-0.14
2023-02-11T01:56:38.725Z,-0.12
2023-02-11T01:59:12.436Z,-0.02
2023-02-11T02:01:43.019Z,0.04
2023-02-11T02:04:13.999Z,-0.31
2023-02-11T02:06:47.219Z,-0.50
2023-02-11T02:09:21.010Z,-0.63
2023-02-11T02:11:48.624Z,-0.57
2023-02-11T02:14:16.148Z,-0.22
2023-02-11T02:16:43.788Z,-0.23
2023-02-11T02:19:51.512Z,-0.04
2023-02-11T02:22:48.717Z,-0.05
2023-02-11T02:25:37.038Z,-0.21
2023-02-11T02:28:19.531Z,-0.16
2023-02-11T02:31:16.674Z,-0.11
2023-02-11T02:33:54.315Z,-0.27
2023-02-11T02:36:29.384Z,-0.19
2023-02-11T02:39:00.346Z,-0.28
2023-02-11T02:41:31.147Z,-0.27
2023-02-11T02:43:58.827Z,-0.38
2023-02-11T02:46:28.455Z,-0.81
2023-02-11T02:48:58.245Z,-0.80
2023-02-11T02:51:46.877Z,-0.67
2023-02-11T02:54:50.921Z,-0.46
2023-02-11T02:57:30.740Z,-0.52
2023-02-11T03:00:14.544Z,-0.30
2023-02-11T03:02:53.260Z,-0.10
2023-02-11T03:05:26.867Z,-0.11
2023-02-11T03:08:02.670Z,-0.59
2023-02-11T03:10:35.117Z,-0.84
2023-02-11T03:13:04.195Z,-0.44
2023-02-11T03:15:35.033Z,-0.58
2023-02-11T03:18:04.836Z,0.05
2023-02-11T03:20:37.015Z,-0.24
2023-02-11T03:23:08.323Z,0.18
2023-02-11T03:25:38.726Z,0.21
2023-02-11T03:28:14.794Z,0.18
2023-02-11T03:30:48.058Z,0.32
2023-02-11T03:33:21.136Z,0.65
2023-02-11T03:35:55.262Z,0.69
2023-02-11T03:38:26.148Z,0.74
2023-02-11T03:40:56.873Z,0.67
2023-02-11T03:43:29.667Z,0.65
2023-02-11T03:45:58.715Z,0.75
2023-02-11T03:48:30.827Z,0.91
2023-02-11T03:51:02.561Z,0.92
2023-02-11T03:53:30.070Z,0.93
2023-02-11T03:56:01.128Z,0.92
2023-02-11T03:58:28.683Z,1.03
2023-02-11T04:00:56.264Z,1.12
2023-02-11T04:03:23.820Z,1.18
2023-02-11T04:05:51.541Z,1.09
2023-02-11T04:08:20.519Z,1.16
2023-02-11T04:10:48.027Z,1.25
2023-02-11T04:13:15.601Z,1.19
2023-02-11T04:15:43.153Z,1.03
2023-02-11T04:18:10.776Z,1.17
2023-02-11T04:20:38.341Z,1.18
2023-02-11T04:23:05.874Z,1.14
2023-02-11T04:25:34.677Z,0.78
2023-02-11T04:28:02.286Z,0.65
2023-02-11T04:30:29.811Z,0.75
2023-02-11T04:32:58.782Z,1.26
2023-02-11T04:35:26.637Z,1.61
2023-02-11T04:37:54.113Z,1.81
2023-02-11T04:40:21.614Z,1.94
2023-02-11T04:42:50.526Z,1.89
2023-02-11T04:45:18.055Z,1.81
2023-02-11T04:47:45.572Z,1.18
2023-02-11T04:50:13.145Z,0.86
2023-02-11T04:52:40.658Z,0.69
2023-02-11T04:55:08.714Z,1.06
2023-02-11T04:57:36.225Z,0.77
2023-02-11T05:00:05.824Z,1.00
2023-02-11T05:02:33.434Z,1.34
2023-02-11T05:05:00.947Z,1.32
2023-02-11T05:07:28.462Z,1.19
2023-02-11T05:09:55.962Z,1.16
2023-02-11T05:12:23.446Z,1.00
2023-02-11T05:14:50.971Z,0.76
2023-02-11T05:17:19.773Z,1.26
2023-02-11T05:19:47.295Z,1.60
2023-02-11T05:22:14.782Z,1.90
2023-02-11T05:24:42.261Z,2.26
2023-02-11T05:27:10.187Z,2.30
2023-02-11T05:29:37.908Z,2.04
2023-02-11T05:32:07.289Z,2.31
2023-02-11T05:34:36.281Z,2.36
2023-02-11T05:37:03.783Z,2.33
2023-02-11T05:39:31.282Z,1.70
2023-02-11T05:41:58.765Z,1.94
2023-02-11T05:44:26.330Z,1.93
2023-02-11T05:46:53.867Z,1.88
2023-02-11T05:49:21.428Z,2.16
2023-02-11T05:51:50.334Z,1.92
2023-02-11T05:54:17.976Z,1.87
2023-02-11T05:56:45.466Z,1.64
2023-02-11T05:59:14.847Z,1.88
2023-02-11T06:01:42.443Z,2.49
2023-02-11T06:04:10.237Z,2.61
2023-02-11T06:06:37.840Z,2.78
2023-02-11T06:09:06.642Z,2.75
2023-02-11T06:11:34.205Z,3.20
2023-02-11T06:14:02.264Z,3.10
2023-02-11T06:16:30.054Z,2.04
2023-02-11T06:18:57.589Z,1.78
2023-02-11T06:21:30.797Z,1.53
2023-02-11T06:24:04.043Z,1.65
2023-02-11T06:26:33.078Z,1.80
2023-02-11T06:29:00.838Z,1.98
2023-02-11T06:31:28.741Z,2.19
2023-02-11T06:33:56.276Z,1.92
2023-02-11T06:36:23.853Z,1.88
2023-02-11T06:38:51.972Z,1.71
2023-02-11T06:41:21.130Z,1.89
2023-02-11T06:43:50.376Z,2.07
2023-02-11T06:46:17.919Z,1.76
2023-02-11T06:48:45.512Z,1.91
2023-02-11T06:51:14.446Z,1.53
2023-02-11T06:53:43.707Z,1.55
2023-02-11T06:56:12.951Z,1.37
2023-02-11T06:58:41.047Z,1.66
2023-02-11T07:01:12.678Z,1.80
2023-02-11T07:03:43.003Z,1.70
2023-02-11T07:06:14.325Z,1.61
2023-02-11T07:08:43.047Z,1.86
2023-02-11T07:11:12.094Z,1.80
2023-02-11T07:13:39.557Z,2.04
2023-02-11T07:16:07.999Z,2.15
2023-02-11T07:18:36.982Z,2.39
2023-02-11T07:21:05.866Z,2.64
2023-02-11T07:23:33.664Z,3.15
2023-02-11T07:26:03.907Z,3.11
2023-02-11T07:28:31.799Z,3.21
2023-02-11T07:30:59.457Z,2.77
2023-02-11T07:33:26.964Z,2.84
2023-02-11T07:35:55.806Z,2.66
2023-02-11T07:38:23.293Z,2.90
2023-02-11T07:40:50.773Z,2.77
2023-02-11T07:43:18.256Z,2.69
2023-02-11T07:45:45.740Z,2.11
2023-02-11T07:48:13.225Z,1.82
2023-02-11T07:50:40.757Z,2.32
2023-02-11T07:53:09.577Z,2.37
2023-02-11T07:55:37.034Z,2.35
2023-02-11T07:58:04.529Z,2.93
2023-02-11T08:00:32.000Z,3.09
2023-02-11T08:02:59.482Z,3.26
2023-02-11T08:05:27.194Z,2.89
2023-02-11T08:07:55.492Z,2.85
2023-02-11T08:10:24.330Z,2.52
2023-02-11T08:12:51.802Z,2.58
2023-02-11T08:15:19.297Z,2.97
2023-02-11T08:17:46.783Z,2.78
2023-02-11T08:20:14.425Z,2.89
2023-02-11T08:22:41.973Z,2.93
2023-02-11T08:25:09.516Z,3.19
2023-02-11T08:27:38.352Z,3.07
2023-02-11T08:30:06.699Z,3.16
2023-02-11T08:32:35.894Z,3.63
2023-02-11T08:35:03.538Z,3.98
2023-02-11T08:37:33.066Z,4.24
2023-02-11T08:40:00.726Z,4.42
2023-02-11T08:42:28.173Z,4.28
2023-02-11T08:44:57.077Z,4.54
2023-02-11T08:47:24.529Z,5.09
2023-02-11T08:49:52.024Z,5.00
2023-02-11T08:52:19.509Z,4.79
2023-02-11T08:54:47.111Z,4.99
2023-02-11T08:57:14.588Z,4.98
2023-02-11T08:59:42.078Z,4.90
2023-02-11T09:02:13.474Z,5.09
2023-02-11T09:04:41.255Z,5.57
2023-02-11T09:07:08.798Z,6.10
2023-02-11T09:09:36.411Z,6.00
2023-02-11T09:12:03.972Z,5.78
2023-02-11T09:14:31.463Z,5.36
2023-02-11T09:16:58.954Z,6.11
2023-02-11T09:19:27.838Z,5.85
2023-02-11T09:21:55.367Z,5.62
2023-02-11T09:24:22.840Z,5.49
2023-02-11T09:26:50.560Z,5.73
2023-02-11T09:29:18.085Z,5.40
2023-02-11T09:31:45.703Z,5.87
2023-02-11T09:34:15.405Z,5.94
2023-02-11T09:36:44.213Z,6.15
2023-02-11T09:39:14.419Z,6.02
2023-02-11T09:42:17.176Z,5.81
2023-02-11T09:44:46.785Z,6.06
2023-02-11T09:47:24.955Z,6.12
2023-02-11T09:49:58.121Z,6.43
2023-02-11T09:52:37.914Z,5.71
2023-02-11T09:55:12.249Z,5.81
2023-02-11T09:57:39.768Z,5.68
2023-02-11T10:00:20.396Z,6.03
2023-02-11T10:03:02.568Z,5.99
2023-02-11T10:05:44.226Z,6.29
2023-02-11T10:08:19.975Z,6.49
2023-02-11T10:10:53.816Z,6.31
2023-02-11T10:13:36.855Z,6.62
2023-02-11T10:16:16.440Z,7.21
2023-02-11T10:19:08.618Z,7.72
2023-02-11T10:21:46.457Z,7.94
2023-02-11T10:24:17.405Z,7.19
2023-02-11T10:26:45.938Z,7.40
2023-02-11T10:29:27.150Z,7.50
2023-02-11T10:31:57.261Z,7.60
2023-02-11T10:34:25.817Z,6.86
2023-02-11T10:36:53.417Z,7.89
2023-02-11T10:39:24.781Z,8.23
2023-02-11T10:41:55.411Z,7.90
2023-02-11T10:44:29.873Z,7.13
2023-02-11T10:46:58.300Z,6.56
2023-02-11T10:49:38.993Z,7.42
2023-02-11T10:52:19.522Z,7.09
2023-02-11T10:54:59.742Z,6.74
2023-02-11T10:57:31.460Z,6.39
2023-02-11T11:00:03.548Z,6.61
2023-02-11T11:02:34.662Z,6.98
2023-02-11T11:05:05.011Z,7.20
2023-02-11T11:07:34.671Z,7.23
2023-02-11T11:10:06.026Z,7.10
2023-02-11T11:12:40.278Z,7.04
2023-02-11T11:15:21.740Z,7.12
2023-02-11T11:17:49.923Z,7.38
2023-02-11T11:20:22.807Z,7.31
2023-02-11T11:22:52.273Z,7.93
2023-02-11T11:25:29.362Z,8.15
2023-02-11T11:28:00.018Z,8.09
2023-02-11T11:30:34.196Z,7.69
2023-02-11T11:33:02.414Z,7.56
2023-02-11T11:35:32.966Z,7.79
2023-02-11T11:38:03.164Z,7.53
2023-02-11T11:40:33.813Z,8.35
2023-02-11T11:43:08.222Z,8.66
2023-02-11T11:45:35.871Z,7.93
2023-02-11T11:48:10.617Z,8.97
2023-02-11T11:50:43.205Z,8.98
2023-02-11T11:53:17.302Z,8.03
2023-02-11T11:55:49.790Z,8.73
2023-02-11T11:58:19.975Z,8.10
2023-02-11T12:00:55.464Z,8.03
2023-02-11T12:03:41.456Z,7.67
2023-02-11T12:06:21.896Z,7.15
2023-02-11T12:09:00.004Z,7.67
2023-02-11T12:11:36.776Z,8.13
2023-02-11T12:14:15.106Z,7.94
2023-02-11T12:16:51.790Z,8.14
2023-02-11T12:20:03.784Z,7.90
2023-02-11T12:22:41.686Z,8.03
2023-02-11T12:25:27.145Z,9.11
2023-02-11T12:28:17.346Z,8.48
2023-02-11T12:30:57.567Z,7.44
2023-02-11T12:33:41.805Z,8.28
2023-02-11T12:36:16.116Z,8.23
2023-02-11T12:38:59.192Z,8.41
2023-02-11T12:41:58.921Z,7.83
2023-02-11T12:44:38.874Z,8.86
2023-02-11T12:47:15.446Z,8.63
2023-02-11T12:50:05.089Z,7.92
2023-02-11T12:52:50.182Z,7.71
2023-02-11T12:55:23.675Z,6.65
2023-02-11T12:57:52.998Z,6.70
2023-02-11T13:00:25.717Z,7.43
2023-02-11T13:03:00.721Z,7.50
2023-02-11T13:05:32.666Z,7.45
2023-02-11T13:08:05.618Z,7.30
2023-02-11T13:10:37.028Z,7.67
2023-02-11T13:13:17.636Z,7.34
2023-02-11T13:15:50.950Z,6.91
2023-02-11T13:18:44.771Z,7.71
2023-02-11T13:21:33.423Z,7.40
2023-02-11T13:24:09.954Z,7.05
2023-02-11T13:26:46.466Z,7.41
2023-02-11T13:29:26.366Z,7.63
2023-02-11T13:31:56.878Z,7.58
2023-02-11T13:34:26.671Z,7.49
2023-02-11T13:36:58.861Z,8.07
2023-02-11T13:39:26.440Z,7.62
2023-02-11T13:42:03.195Z,7.84
2023-02-11T13:44:33.653Z,8.00
2023-02-11T13:47:04.881Z,8.59
2023-02-11T13:49:36.638Z,7.67
2023-02-11T13:52:07.325Z,7.43
2023-02-11T13:54:38.664Z,7.77
2023-02-11T13:57:23.873Z,7.53
2023-02-11T13:59:53.057Z,7.59
2023-02-11T14:02:43.300Z,8.27
2023-02-11T14:05:47.673Z,8.05
2023-02-11T14:08:37.664Z,7.41
2023-02-11T14:11:28.059Z,7.41
2023-02-11T14:14:17.212Z,7.56
2023-02-11T14:17:24.877Z,8.20
2023-02-11T14:19:52.645Z,8.23
2023-02-11T14:22:26.674Z,7.50
2023-02-11T14:24:57.327Z,7.37
2023-02-11T14:27:30.369Z,7.44
2023-02-11T14:30:20.222Z,7.22
2023-02-11T14:33:01.856Z,7.30
2023-02-11T14:35:36.471Z,7.62
2023-02-11T14:38:14.023Z,7.53
2023-02-11T14:40:51.372Z,7.42
2023-02-11T14:43:21.872Z,7.11
2023-02-11T14:45:52.380Z,7.37
2023-02-11T14:48:21.420Z,7.39
2023-02-11T14:50:52.876Z,7.95
2023-02-11T14:53:24.364Z,8.32
2023-02-11T14:55:53.310Z,7.89
2023-02-11T14:58:22.768Z,7.95
2023-02-11T15:00:55.351Z,7.87
2023-02-11T15:03:28.227Z,7.52
2023-02-11T15:05:57.365Z,8.04
2023-02-11T15:08:24.962Z,7.42
2023-02-11T15:10:54.993Z,7.21
2023-02-11T15:13:27.109Z,7.12
2023-02-11T15:16:00.143Z,7.39
2023-02-11T15:18:34.885Z,7.21
2023-02-11T15:21:02.489Z,7.06
2023-02-11T15:23:31.908Z,6.80
2023-02-11T15:26:04.170Z,6.64
2023-02-11T15:28:35.145Z,6.27
2023-02-11T15:31:06.371Z,6.14
2023-02-11T15:33:34.150Z,6.19
2023-02-11T15:36:03.933Z,5.91
2023-02-11T15:38:31.960Z,6.02
2023-02-11T15:41:02.995Z,6.02
2023-02-11T15:43:50.669Z,6.25
2023-02-11T15:46:21.905Z,6.10
2023-02-11T15:48:51.570Z,6.36
2023-02-11T15:51:22.702Z,6.34
2023-02-11T15:53:56.570Z,6.17
2023-02-11T15:56:29.479Z,6.10
2023-02-11T15:59:00.012Z,5.80
2023-02-11T16:01:35.469Z,5.70
2023-02-11T16:04:04.827Z,5.69
2023-02-11T16:06:39.105Z,5.71
2023-02-11T16:09:23.056Z,5.66
2023-02-11T16:11:59.164Z,5.80
2023-02-11T16:14:31.685Z,5.52
2023-02-11T16:17:03.352Z,5.54
2023-02-11T16:19:32.505Z,5.57
2023-02-11T16:22:02.931Z,5.39
2023-02-11T16:24:34.024Z,5.50
2023-02-11T16:27:02.974Z,5.46
2023-02-11T16:29:32.451Z,5.42
2023-02-11T16:32:09.815Z,5.43
2023-02-11T16:34:38.110Z,5.38
2023-02-11T16:37:07.021Z,5.51
2023-02-11T16:39:34.860Z,5.44
2023-02-11T16:42:02.652Z,5.47
2023-02-11T16:44:30.681Z,5.37
2023-02-11T16:47:00.603Z,5.35
2023-02-11T16:49:32.150Z,5.23
2023-02-11T16:52:02.134Z,5.29
2023-02-11T16:54:30.764Z,5.28
2023-02-11T16:56:58.868Z,5.27
2023-02-11T16:59:26.626Z,5.15
2023-02-11T17:01:55.608Z,5.13
2023-02-11T17:04:27.106Z,5.18
2023-02-11T17:06:58.241Z,5.22
2023-02-11T17:09:30.512Z,5.30
2023-02-11T17:11:58.743Z,5.32
2023-02-11T17:14:26.225Z,5.32
2023-02-11T17:16:53.786Z,5.28
2023-02-11T17:19:22.299Z,5.29
2023-02-11T17:21:51.568Z,5.32
2023-02-11T17:24:21.346Z,5.27
2023-02-11T17:26:49.668Z,5.29
2023-02-11T17:29:19.135Z,5.41
2023-02-11T17:31:46.670Z,5.53
2023-02-11T17:34:14.265Z,5.55
2023-02-11T17:36:42.193Z,5.41
2023-02-11T17:39:09.744Z,5.26
2023-02-11T17:41:39.312Z,5.06
2023-02-11T17:44:07.836Z,4.98
2023-02-11T17:46:36.440Z,5.12
2023-02-11T17:49:04.922Z,5.09
2023-02-11T17:51:33.989Z,5.15
2023-02-11T17:54:03.850Z,5.03
2023-02-11T17:56:34.285Z,4.96
2023-02-11T17:59:03.682Z,5.09
2023-02-11T18:01:32.662Z,4.90
2023-02-11T18:04:00.543Z,4.99
2023-02-11T18:06:29.073Z,4.99
2023-02-11T18:08:59.712Z,4.94
2023-02-11T18:11:27.867Z,4.87
2023-02-11T18:13:55.386Z,4.86
2023-02-11T18:16:27.603Z,4.93
2023-02-11T18:18:55.341Z,5.13
2023-02-11T18:21:23.373Z,5.10
2023-02-11T18:23:51.062Z,5.15
2023-02-11T18:26:20.361Z,5.00
2023-02-11T18:28:48.856Z,5.15
2023-02-11T18:31:16.454Z,5.10
2023-02-11T18:33:47.771Z,4.93
2023-02-11T18:36:16.765Z,4.85
2023-02-11T18:38:45.027Z,5.13
2023-02-11T18:41:13.211Z,4.91
2023-02-11T18:43:40.994Z,4.90
2023-02-11T18:46:10.452Z,4.89
2023-02-11T18:48:38.397Z,5.12
2023-02-11T18:51:11.403Z,5.02
2023-02-11T18:53:39.031Z,5.04
2023-02-11T18:56:11.280Z,4.90
2023-02-11T18:58:39.359Z,4.99
2023-02-11T19:01:15.986Z,5.08
2023-02-11T19:03:43.977Z,5.03
2023-02-11T19:06:17.332Z,5.17
2023-02-11T19:08:44.881Z,5.80
2023-02-11T19:11:12.725Z,5.95
2023-02-11T19:13:40.282Z,5.54
2023-02-11T19:16:11.305Z,5.41
2023-02-11T19:18:39.641Z,4.89
2023-02-11T19:21:08.464Z,5.12
2023-02-11T19:23:37.499Z,5.50
2023-02-11T19:26:06.387Z,5.18
2023-02-11T19:28:35.223Z,5.13
2023-02-11T19:31:07.527Z,5.35
2023-02-11T19:33:35.186Z,5.52
2023-02-11T19:36:04.219Z,5.37
2023-02-11T19:38:31.774Z,5.39
2023-02-11T19:41:00.619Z,5.20
2023-02-11T19:43:28.550Z,5.12
2023-02-11T19:45:57.497Z,5.56
2023-02-11T19:48:25.588Z,5.43
2023-02-11T19:50:53.332Z,5.49
2023-02-11T19:53:20.834Z,5.41
2023-02-11T19:55:48.827Z,5.18
2023-02-11T19:58:18.571Z,5.27
2023-02-11T20:00:46.100Z,4.87
2023-02-11T20:03:13.584Z,4.77
2023-02-11T20:05:43.372Z,4.76
2023-02-11T20:08:11.135Z,4.85
2023-02-11T20:10:38.690Z,4.78
2023-02-11T20:13:06.508Z,4.79
2023-02-11T20:15:35.373Z,4.75
2023-02-11T20:18:02.911Z,4.76
2023-02-11T20:20:30.399Z,5.02
2023-02-11T20:22:58.538Z,5.14
2023-02-11T20:25:26.045Z,5.20
2023-02-11T20:27:53.552Z,5.07
2023-02-11T20:30:21.672Z,5.16
2023-02-11T20:32:50.502Z,5.13
2023-02-11T20:35:18.059Z,5.36
2023-02-11T20:37:45.700Z,5.04
2023-02-11T20:40:13.806Z,5.32
2023-02-11T20:42:41.296Z,5.27
2023-02-11T20:45:09.692Z,5.30
2023-02-11T20:47:38.204Z,5.10
2023-02-11T20:50:08.831Z,4.89
2023-02-11T20:52:36.881Z,4.89
2023-02-11T20:55:04.697Z,4.71
2023-02-11T20:57:34.975Z,4.54
2023-02-11T21:00:03.043Z,4.63
2023-02-11T21:02:31.109Z,4.78
2023-02-11T21:04:58.566Z,4.91
2023-02-11T21:07:29.322Z,4.73
2023-02-11T21:09:56.890Z,4.65
2023-02-11T21:12:24.822Z,4.56
2023-02-11T21:14:53.956Z,4.52
2023-02-11T21:17:21.859Z,4.45
2023-02-11T21:19:49.352Z,4.39
2023-02-11T21:22:16.838Z,4.39
2023-02-11T21:24:45.663Z,4.23
2023-02-11T21:27:13.308Z,4.19
2023-02-11T21:29:53.533Z,4.28
2023-02-11T21:32:21.888Z,4.24
2023-02-11T21:34:49.443Z,4.29
2023-02-11T21:37:17.040Z,4.39
2023-02-11T21:39:45.960Z,4.46
2023-02-11T21:42:13.421Z,4.31
2023-02-11T21:44:41.005Z,4.33
2023-02-11T21:47:08.566Z,4.33
2023-02-11T21:49:36.087Z,4.39
2023-02-11T21:52:03.675Z,4.38
2023-02-11T21:54:32.175Z,4.42
2023-02-11T21:57:02.997Z,4.30
2023-02-11T21:59:31.730Z,4.34
2023-02-11T22:01:59.732Z,4.30
2023-02-11T22:04:27.358Z,4.37
2023-02-11T22:06:54.878Z,4.52
2023-02-11T22:09:22.386Z,4.53
2023-02-11T22:11:50.240Z,4.72
2023-02-11T22:14:19.092Z,4.76
2023-02-11T22:16:46.930Z,4.87
2023-02-11T22:19:15.319Z,4.92
2023-02-11T22:21:43.566Z,5.12
2023-02-11T22:24:11.201Z,5.12
2023-02-11T22:26:39.358Z,5.38
2023-02-11T22:29:06.872Z,5.23
2023-02-11T22:31:36.527Z,5.10
2023-02-11T22:34:05.003Z,5.30
2023-02-11T22:36:34.619Z,4.71
2023-02-11T22:39:03.713Z,4.87
2023-02-11T22:41:31.743Z,4.63
2023-02-11T22:43:59.256Z,4.61
2023-02-11T22:46:27.114Z,4.78
2023-02-11T22:48:56.011Z,4.62
2023-02-11T22:51:25.488Z,4.97
2023-02-11T22:53:54.447Z,4.66
2023-02-11T22:56:22.864Z,4.91
2023-02-11T22:58:52.052Z,5.14
2023-02-11T23:01:20.441Z,4.89
2023-02-11T23:03:48.290Z,4.59
2023-02-11T23:06:18.089Z,4.51
2023-02-11T23:08:45.946Z,4.56
2023-02-11T23:11:16.462Z,4.41
2023-02-11T23:13:45.545Z,4.53
2023-02-11T23:16:15.259Z,4.56
2023-02-11T23:18:44.346Z,4.41
2023-02-11T23:21:15.764Z,4.39
2023-02-11T23:23:45.277Z,4.31
2023-02-11T23:26:15.495Z,4.36
2023-02-11T23:28:45.822Z,4.47
2023-02-11T23:31:15.002Z,4.72
2023-02-11T23:33:42.675Z,4.59
2023-02-11T23:36:10.510Z,4.79
2023-02-11T23:38:38.129Z,4.73
2023-02-11T23:41:07.300Z,4.85
2023-02-11T23:43:34.891Z,4.67
2023-02-11T23:46:02.513Z,4.67
2023-02-11T23:48:30.010Z,4.40
2023-02-11T23:50:57.513Z,4.62
2023-02-11T23:53:25.010Z,4.51
2023-02-11T23:55:52.752Z,4.34
2023-02-11T23:58:22.025Z,4.37
